Time;durP1;ratioP1;P1;durP2;ratioP2;P2;SDS_P1;SDS_P2;PMS_P1;PMS_P2;Temp;Humidity;BMP_temperature;BMP_pressure;BME280_temperature;BME280_humidity;BME280_pressure;Samples;Min_cycle;Max_cycle;Signal;HPM_P1;HPM_P2
2022/07/09 00:00:06;;;;;;;3.15;2.47;;;;;;;12.95;82.58;100798.70;1675171;85;25647;-70
2022/07/09 00:02:34;;;;;;;5.22;2.75;;;;;;;12.89;82.65;100795.89;1667564;85;25657;-68
2022/07/09 00:05:01;;;;;;;3.20;2.90;;;;;;;12.86;82.85;100798.66;1675226;85;25635;-68
2022/07/09 00:07:27;;;;;;;3.20;2.70;;;;;;;12.84;82.79;100795.46;1667585;86;25497;-70
2022/07/09 00:09:53;;;;;;;3.67;3.00;;;;;;;12.82;83.12;100800.95;1675243;85;27317;-70
2022/07/09 00:12:20;;;;;;;5.25;2.65;;;;;;;12.80;83.32;100790.39;1667347;86;25928;-68
2022/07/09 00:14:46;;;;;;;4.30;2.60;;;;;;;12.76;83.12;100796.21;1675281;85;25476;-68
2022/07/09 00:17:13;;;;;;;5.50;2.45;;;;;;;12.76;83.40;100798.93;1667417;86;26317;-68
2022/07/09 00:19:39;;;;;;;4.30;2.52;;;;;;;12.74;83.47;100795.73;1675307;85;25154;-68
2022/07/09 00:22:07;;;;;;;3.65;2.75;;;;;;;12.72;83.67;100793.89;1667430;86;28129;-68
2022/07/09 00:24:33;;;;;;;3.00;2.60;;;;;;;12.69;83.45;100794.50;1675154;85;25589;-69
2022/07/09 00:26:59;;;;;;;3.92;2.40;;;;;;;12.67;83.59;100796.73;1667484;86;25430;-68
2022/07/09 00:29:25;;;;;;;3.87;2.72;;;;;;;12.65;83.75;100793.51;1675218;85;27551;-69
2022/07/09 00:31:51;;;;;;;4.58;2.70;;;;;;;12.63;83.44;100787.06;1667491;86;25526;-69
2022/07/09 00:34:17;;;;;;;5.28;2.67;;;;;;;12.61;83.25;100790.61;1675256;85;28117;-69
2022/07/09 00:36:43;;;;;;;7.55;2.70;;;;;;;12.61;83.52;100791.18;1666470;85;33326;-69
2022/07/09 00:39:09;;;;;;;4.95;2.67;;;;;;;12.58;83.30;100786.37;1667719;86;25614;-69
2022/07/09 00:41:35;;;;;;;5.28;2.67;;;;;;;12.56;83.39;100788.03;1650397;86;28491;-69
2022/07/09 00:44:02;;;;;;;4.42;2.52;;;;;;;12.52;83.27;100790.56;1667759;85;25553;-69
2022/07/09 00:46:28;;;;;;;4.95;3.12;;;;;;;12.50;83.36;100786.01;1650471;86;27432;-69
2022/07/09 00:48:54;;;;;;;3.77;2.52;;;;;;;12.48;83.16;100791.48;1667617;85;25559;-69
2022/07/09 00:51:20;;;;;;;7.47;3.12;;;;;;;12.46;83.39;100786.39;1650470;86;30072;-70
2022/07/09 00:53:48;;;;;;;4.75;3.02;;;;;;;12.44;83.60;100792.66;1667680;85;25405;-68
2022/07/09 00:56:15;;;;;;;3.52;2.75;;;;;;;12.42;84.01;100794.89;1650452;86;25609;-69
2022/07/09 00:58:45;;;;;;;4.10;2.72;;;;;;;12.42;84.33;100790.81;1667707;86;27329;-69
2022/07/09 01:01:11;;;;;;;3.60;2.83;;;;;;;12.43;84.50;100791.08;1650452;86;25586;-67
2022/07/09 01:03:37;;;;;;;5.67;2.65;;;;;;;12.45;84.81;100784.78;1667775;85;29982;-68
2022/07/09 01:06:03;;;;;;;10.78;3.02;;;;;;;12.47;84.63;100780.41;1650411;86;25727;-68
2022/07/09 01:08:29;;;;;;;6.78;2.92;;;;;;;12.49;84.48;100782.25;1667683;86;25421;-69
2022/07/09 01:10:55;;;;;;;3.15;2.40;;;;;;;12.50;84.39;100787.93;1650457;86;28057;-69
2022/07/09 01:13:21;;;;;;;7.72;3.47;;;;;;;12.50;84.53;100781.15;1667632;85;25620;-69
2022/07/09 01:15:48;;;;;;;5.47;3.02;;;;;;;12.63;84.96;100796.56;1650453;86;30077;-69
2022/07/09 01:18:14;;;;;;;3.50;2.20;;;;;;;12.63;84.96;100796.56;1667664;86;26422;-69
2022/07/09 01:20:40;;;;;;;2.77;2.47;;;;;;;12.51;85.16;100774.59;1650434;87;25484;-69
2022/07/09 01:23:07;;;;;;;7.37;2.70;;;;;;;12.52;85.24;100772.93;1667729;85;27401;-69
2022/07/09 01:25:40;;;;;;;5.15;2.67;;;;;;;12.54;85.39;100775.33;1650483;87;27192;-68
2022/07/09 01:28:09;;;;;;;7.58;2.75;;;;;;;12.57;85.38;100771.22;1667816;85;25627;-68
2022/07/09 01:30:39;;;;;;;4.17;2.77;;;;;;;12.58;85.59;100763.30;1650646;87;26198;-69
2022/07/09 01:33:06;;;;;;;3.45;2.85;;;;;;;12.61;85.66;100766.75;1667797;86;25655;-69
2022/07/09 01:35:32;;;;;;;4.67;3.08;;;;;;;12.62;85.74;100764.30;1650589;86;27338;-70
2022/07/09 01:37:58;;;;;;;4.45;3.00;;;;;;;12.66;85.91;100758.48;1667665;84;25502;-70
2022/07/09 01:40:24;;;;;;;3.35;2.85;;;;;;;12.67;85.85;100766.88;1650554;86;25578;-70
2022/07/09 01:42:51;;;;;;;6.37;3.30;;;;;;;12.68;85.95;100764.39;1667800;85;25625;-69
2022/07/09 01:45:17;;;;;;;3.02;2.65;;;;;;;12.71;86.51;100763.21;1650571;87;25663;-69
2022/07/09 01:47:44;;;;;;;5.22;2.70;;;;;;;12.75;86.73;100755.24;1667818;86;27331;-69
2022/07/09 01:50:10;;;;;;;4.95;2.65;;;;;;;12.78;86.72;100752.47;1650476;86;25479;-69
2022/07/09 01:52:37;;;;;;;4.12;3.50;;;;;;;12.82;86.58;100752.08;1667828;86;25787;-68
2022/07/09 01:55:05;;;;;;;6.67;3.50;;;;;;;12.85;86.53;100758.25;1650471;87;25630;-68
2022/07/09 01:57:31;;;;;;;3.65;3.00;;;;;;;12.88;86.69;100761.70;1667813;86;25560;-68
2022/07/09 01:59:57;;;;;;;4.47;2.75;;;;;;;12.89;86.80;100756.53;1650547;86;27310;-69
2022/07/09 02:02:24;;;;;;;5.03;3.33;;;;;;;12.91;86.74;100752.94;1667801;86;25634;-69
2022/07/09 02:04:50;;;;;;;4.20;2.77;;;;;;;12.91;86.73;100747.51;1650645;86;30118;-69
2022/07/09 02:07:16;;;;;;;4.60;2.62;;;;;;;12.91;86.97;100742.08;1667750;86;25658;-69
2022/07/09 02:09:42;;;;;;;6.00;2.85;;;;;;;12.95;87.05;100749.03;1650570;87;25490;-69
2022/07/09 02:12:08;;;;;;;5.33;2.98;;;;;;;12.98;87.26;100753.28;1668267;86;27317;-70
2022/07/09 02:14:35;;;;;;;4.25;2.98;;;;;;;13.00;87.38;100747.53;1651065;86;25794;-70
2022/07/09 02:17:01;;;;;;;3.40;2.90;;;;;;;13.03;87.30;100743.63;1667814;85;25417;-70
2022/07/09 02:19:27;;;;;;;5.37;3.02;;;;;;;13.08;87.56;100738.63;1650476;86;25621;-69
2022/07/09 02:21:53;;;;;;;7.05;2.77;;;;;;;13.12;87.67;100738.80;1667780;86;25402;-69
2022/07/09 02:24:20;;;;;;;5.45;2.98;;;;;;;13.14;87.78;100735.98;1650498;86;27350;-69
2022/07/09 02:26:46;;;;;;;4.95;3.40;;;;;;;13.18;87.82;100740.26;1667736;86;25620;-69
2022/07/09 02:29:12;;;;;;;9.08;3.60;;;;;;;13.19;87.97;100735.84;1650548;87;25423;-69
2022/07/09 02:31:38;;;;;;;3.25;3.00;;;;;;;13.23;87.79;100730.60;1667741;85;25705;-69
2022/07/09 02:34:04;;;;;;;7.78;4.00;;;;;;;13.26;87.72;100733.48;1650545;86;25403;-69
2022/07/09 02:36:30;;;;;;;5.67;3.60;;;;;;;13.29;87.94;100731.25;1667767;85;27440;-69
2022/07/09 02:38:56;;;;;;;7.90;3.27;;;;;;;13.32;88.02;100734.73;1661994;85;33039;-70
2022/07/09 02:41:22;;;;;;;5.10;3.37;;;;;;;13.34;88.09;100731.92;1675291;85;25441;-70
2022/07/09 02:43:48;;;;;;;4.85;2.83;;;;;;;13.37;88.13;100735.37;1667566;86;25678;-70
2022/07/09 02:46:15;;;;;;;6.08;3.17;;;;;;;13.39;88.25;100735.84;1675342;85;25489;-69
2022/07/09 02:48:41;;;;;;;5.15;3.47;;;;;;;13.42;88.28;100739.30;1667539;86;27370;-70
2022/07/09 02:51:07;;;;;;;5.42;3.00;;;;;;;13.45;88.23;100740.59;1675329;85;25480;-70
2022/07/09 02:53:33;;;;;;;5.12;3.87;;;;;;;13.50;88.62;100738.26;1667603;86;29668;-70
2022/07/09 02:55:59;;;;;;;4.53;3.02;;;;;;;13.50;88.62;100738.26;1675271;85;26356;-70
2022/07/09 02:58:25;;;;;;;6.67;3.58;;;;;;;13.54;88.53;100740.59;1647923;86;25438;-70
2022/07/09 03:00:51;;;;;;;7.12;3.30;;;;;;;13.57;88.70;100741.30;1667473;86;27997;-70
2022/07/09 03:03:18;;;;;;;5.50;3.40;;;;;;;13.59;88.73;100741.23;1675217;84;33057;-70
2022/07/09 03:05:44;;;;;;;7.80;3.70;;;;;;;13.61;88.88;100738.20;1667538;86;25661;-70
2022/07/09 03:08:10;;;;;;;9.73;3.92;;;;;;;13.66;88.96;100737.25;1675249;83;25645;-70
2022/07/09 03:10:36;;;;;;;7.08;3.35;;;;;;;13.69;89.19;100733.88;1667535;86;25647;-70
2022/07/09 03:13:02;;;;;;;5.83;3.42;;;;;;;13.73;89.28;100736.22;1675285;85;27347;-70
2022/07/09 03:15:28;;;;;;;7.45;3.70;;;;;;;13.78;89.35;100734.70;1667420;86;25424;-70
2022/07/09 03:17:54;;;;;;;9.78;4.08;;;;;;;13.82;89.25;100732.92;1675253;85;25467;-70
2022/07/09 03:20:21;;;;;;;7.53;4.30;;;;;;;13.85;89.35;100729.57;1667502;86;25676;-70
2022/07/09 03:22:47;;;;;;;7.17;3.90;;;;;;;13.89;89.36;100724.29;1675242;85;25633;-70
2022/07/09 03:25:13;;;;;;;6.35;4.10;;;;;;;13.92;89.44;100727.73;1667544;86;29645;-70
2022/07/09 03:27:39;;;;;;;9.70;4.70;;;;;;;13.96;89.64;100737.66;1675294;85;33019;-70
2022/07/09 03:30:07;;;;;;;7.00;4.50;;;;;;;14.00;89.64;100733.73;1667448;86;25485;-70
2022/07/09 03:32:33;;;;;;;7.67;3.95;;;;;;;14.04;89.62;100737.39;1675232;85;25871;-70
2022/07/09 03:34:59;;;;;;;8.60;4.60;;;;;;;14.08;89.65;100733.47;1667504;86;25563;-68
2022/07/09 03:37:26;;;;;;;8.13;4.60;;;;;;;14.11;89.69;100734.98;1675250;85;29656;-68
2022/07/09 03:39:52;;;;;;;13.55;4.60;;;;;;;14.16;89.85;100738.89;1651647;86;25538;-68
2022/07/09 03:42:18;;;;;;;9.98;4.20;;;;;;;14.24;89.90;100731.06;1667691;86;30011;-69
2022/07/09 03:44:44;;;;;;;10.05;4.67;;;;;;;14.24;89.90;100731.06;1650470;86;25663;-69
2022/07/09 03:47:10;;;;;;;5.75;4.37;;;;;;;14.27;89.83;100729.03;1667734;86;25554;-69
2022/07/09 03:49:36;;;;;;;13.18;4.80;;;;;;;14.30;89.97;100730.58;1650485;86;27566;-69
2022/07/09 03:52:03;;;;;;;9.95;4.58;;;;;;;14.34;89.76;100723.36;1667702;85;33201;-69
2022/07/09 03:54:29;;;;;;;7.58;5.15;;;;;;;14.36;89.48;100726.55;1650482;86;25649;-69
2022/07/09 03:56:55;;;;;;;14.93;5.00;;;;;;;14.39;89.46;100722.39;1667693;85;25585;-69
2022/07/09 03:59:21;;;;;;;9.65;4.40;;;;;;;14.42;89.46;100718.20;1650532;87;25554;-69
2022/07/09 04:01:47;;;;;;;10.00;4.95;;;;;;;14.44;89.29;100727.66;1667655;86;27401;-69
2022/07/09 04:04:13;;;;;;;8.43;4.30;;;;;;;14.47;89.40;100728.37;1650407;87;25608;-70
2022/07/09 04:06:39;;;;;;;10.20;4.53;;;;;;;14.50;89.37;100729.06;1667717;85;25466;-69
2022/07/09 04:09:06;;;;;;;12.33;4.90;;;;;;;14.51;89.18;100723.88;1650455;87;25540;-69
2022/07/09 04:11:32;;;;;;;9.65;4.90;;;;;;;14.51;89.19;100722.51;1667725;86;25563;-69
2022/07/09 04:14:00;;;;;;;10.80;5.20;;;;;;;14.52;89.05;100721.40;1650458;86;28124;-69
2022/07/09 04:16:28;;;;;;;10.03;4.70;;;;;;;14.54;88.95;100717.78;1667626;86;25597;-69
2022/07/09 04:18:55;;;;;;;10.20;4.62;;;;;;;14.55;88.68;100725.37;1650461;87;25483;-69
2022/07/09 04:21:21;;;;;;;13.18;5.28;;;;;;;14.55;88.55;100719.36;1667655;85;25591;-70
2022/07/09 04:23:49;;;;;;;14.20;5.00;;;;;;;14.56;88.31;100724.27;1650475;86;25620;-70
2022/07/09 04:26:16;;;;;;;9.65;4.80;;;;;;;14.54;88.25;100721.87;1667736;86;27321;-70
2022/07/09 04:28:42;;;;;;;10.98;5.03;;;;;;;14.53;88.17;100721.62;1650371;87;25589;-70
2022/07/09 04:31:08;;;;;;;12.35;5.03;;;;;;;14.50;87.98;100727.70;1667701;85;25638;-70
2022/07/09 04:33:35;;;;;;;9.00;4.87;;;;;;;14.50;87.96;100724.19;1650457;86;25615;-70
2022/07/09 04:36:01;;;;;;;9.98;4.80;;;;;;;14.49;88.22;100724.77;1667766;85;25606;-70
2022/07/09 04:38:28;;;;;;;10.72;5.30;;;;;;;14.50;88.51;100723.62;1653703;86;27331;-70
2022/07/09 04:40:55;;;;;;;11.73;5.47;;;;;;;14.52;88.62;100727.38;1675208;85;25649;-69
2022/07/09 04:43:21;;;;;;;10.23;5.72;;;;;;;14.55;88.94;100730.25;1667449;86;25442;-70
2022/07/09 04:45:48;;;;;;;10.60;5.62;;;;;;;14.57;88.93;100728.03;1675183;85;25608;-70
2022/07/09 04:48:14;;;;;;;12.10;5.28;;;;;;;14.60;89.10;100727.16;1667485;86;25432;-70
2022/07/09 04:50:40;;;;;;;12.43;6.00;;;;;;;14.65;89.09;100725.05;1667508;85;28052;-70
2022/07/09 04:53:06;;;;;;;16.10;5.92;;;;;;;14.68;89.13;100728.49;1667375;86;33165;-70
2022/07/09 04:55:32;;;;;;;11.57;5.40;;;;;;;14.75;89.31;100728.78;1675299;84;30226;-70
2022/07/09 04:57:58;;;;;;;14.15;5.55;;;;;;;14.75;89.31;100728.78;1667441;86;25476;-70
2022/07/09 05:00:24;;;;;;;10.10;5.35;;;;;;;14.81;89.36;100727.23;1675411;85;25472;-70
2022/07/09 05:02:50;;;;;;;14.53;6.65;;;;;;;14.85;89.21;100727.63;1667560;86;27393;-70
2022/07/09 05:05:16;;;;;;;14.78;5.87;;;;;;;14.90;89.49;100723.36;1675336;84;25449;-70
2022/07/09 05:07:42;;;;;;;15.23;4.83;;;;;;;15.04;89.01;100729.14;1667597;86;27963;-70
2022/07/09 05:10:09;;;;;;;11.12;4.95;;;;;;;15.04;89.01;100729.14;1675360;84;26329;-70
2022/07/09 05:12:36;;;;;;;11.30;5.10;;;;;;;15.06;88.77;100718.72;1667665;86;25447;-70
2022/07/09 05:15:02;;;;;;;9.10;4.95;;;;;;;15.09;88.64;100715.34;1675446;85;27381;-71
2022/07/09 05:17:30;;;;;;;9.38;4.85;;;;;;;15.13;88.72;100709.45;1667563;86;25666;-70
2022/07/09 05:19:56;;;;;;;11.15;5.03;;;;;;;15.19;88.78;100710.87;1675584;84;25607;-71
2022/07/09 05:22:22;;;;;;;12.88;4.72;;;;;;;15.24;88.60;100713.41;1667480;86;25710;-71
2022/07/09 05:24:49;;;;;;;12.90;5.17;;;;;;;15.30;88.05;100711.27;1675429;85;25464;-70
2022/07/09 05:27:15;;;;;;;9.58;4.75;;;;;;;15.39;88.71;100711.21;1667606;86;27277;-70
2022/07/09 05:29:41;;;;;;;12.63;4.87;;;;;;;15.48;88.57;100722.30;1675313;85;25506;-70
2022/07/09 05:32:08;;;;;;;11.03;4.10;;;;;;;15.62;87.91;100722.03;1667585;86;29569;-70
2022/07/09 05:34:34;;;;;;;9.55;4.53;;;;;;;15.62;87.91;100722.03;1675347;85;25846;-70
2022/07/09 05:37:00;;;;;;;10.95;4.72;;;;;;;15.74;88.75;100719.94;1667584;86;25476;-70
2022/07/09 05:39:26;;;;;;;10.65;4.70;;;;;;;15.90;89.35;100716.05;1671946;83;27381;-71
2022/07/09 05:41:52;;;;;;;11.38;4.08;;;;;;;16.04;88.93;100717.95;1650420;86;33222;-71
2022/07/09 05:44:21;;;;;;;8.50;4.28;;;;;;;16.18;88.66;100723.11;1667862;86;25210;-71
2022/07/09 05:46:47;;;;;;;10.58;3.83;;;;;;;16.27;87.72;100721.65;1650658;86;25607;-71
2022/07/09 05:49:13;;;;;;;9.18;4.17;;;;;;;16.37;87.07;100716.34;1667841;85;25513;-72
2022/07/09 05:51:39;;;;;;;7.85;4.00;;;;;;;16.53;87.25;100718.66;1650663;86;28064;-71
2022/07/09 05:54:05;;;;;;;6.90;3.37;;;;;;;16.69;87.34;100719.36;1667739;85;25651;-71
2022/07/09 05:56:31;;;;;;;8.05;3.90;;;;;;;16.86;86.07;100711.55;1650573;86;25475;-71
2022/07/09 05:58:57;;;;;;;7.95;4.08;;;;;;;16.95;85.66;100710.27;1667749;86;26213;-71
2022/07/09 06:01:23;;;;;;;7.83;3.12;;;;;;;17.05;84.69;100713.12;1650557;86;25411;-71
2022/07/09 06:03:49;;;;;;;9.90;3.62;;;;;;;17.18;85.06;100711.98;1656210;86;27334;-71
2022/07/09 06:06:15;;;;;;;9.95;3.45;;;;;;;17.36;85.04;100707.62;1650461;86;25564;-71
2022/07/09 06:08:41;;;;;;;8.73;3.37;;;;;;;17.49;83.82;100697.46;1667798;86;25582;-71
2022/07/09 06:11:07;;;;;;;10.65;5.37;;;;;;;17.63;83.60;100701.97;1650489;86;26515;-71
2022/07/09 06:13:33;;;;;;;6.28;4.17;;;;;;;17.83;84.57;100696.67;1667821;85;25425;-70
2022/07/09 06:15:59;;;;;;;8.38;2.83;;;;;;;18.00;82.98;100692.28;1650550;86;27997;-70
2022/07/09 06:18:25;;;;;;;8.73;3.87;;;;;;;18.09;81.34;100688.02;1667720;85;25453;-70
2022/07/09 06:20:51;;;;;;;6.00;3.60;;;;;;;18.11;80.07;100687.09;1650551;86;25621;-67
2022/07/09 06:23:17;;;;;;;6.62;3.00;;;;;;;18.15;80.30;100692.66;1667706;86;25680;-68
2022/07/09 06:25:43;;;;;;;12.33;3.60;;;;;;;18.23;80.24;100693.07;1650586;86;25427;-67
2022/07/09 06:28:10;;;;;;;6.87;3.20;;;;;;;18.38;80.58;100690.92;1667767;86;29581;-67
2022/07/09 06:30:36;;;;;;;9.30;3.40;;;;;;;18.53;78.59;100687.97;1650459;87;25408;-67
2022/07/09 06:33:02;;;;;;;8.43;3.10;;;;;;;18.62;78.30;100689.16;1667838;85;25644;-67
2022/07/09 06:35:30;;;;;;;8.38;2.77;;;;;;;18.66;77.04;100689.48;1650483;87;25728;-67
2022/07/09 06:37:58;;;;;;;8.13;2.90;;;;;;;18.80;77.96;100684.91;1667891;86;25634;-67
2022/07/09 06:40:24;;;;;;;10.78;3.60;;;;;;;18.99;78.27;100676.56;1650459;86;27325;-67
2022/07/09 06:42:50;;;;;;;7.95;3.12;;;;;;;19.18;77.84;100675.23;1667632;86;27233;-67
2022/07/09 06:45:16;;;;;;;5.20;3.12;;;;;;;19.29;77.28;100680.96;1650434;87;25668;-67
2022/07/09 06:47:42;;;;;;;5.17;2.98;;;;;;;19.31;75.73;100681.98;1667757;86;25630;-67
2022/07/09 06:50:09;;;;;;;9.75;3.17;;;;;;;19.20;74.16;100670.17;1650560;86;25435;-66
2022/07/09 06:52:35;;;;;;;9.00;3.35;;;;;;;19.08;74.41;100679.89;1667857;85;28030;-66
2022/07/09 06:55:02;;;;;;;7.65;2.90;;;;;;;19.03;73.87;100671.39;1650443;86;25742;-67
2022/07/09 06:57:30;;;;;;;8.78;3.40;;;;;;;19.00;74.22;100672.66;1667740;85;25677;-66
2022/07/09 06:59:56;;;;;;;9.38;3.65;;;;;;;19.07;74.69;100666.55;1650484;86;25527;-66
2022/07/09 07:02:23;;;;;;;9.48;4.15;;;;;;;19.17;74.62;100670.09;1667797;86;25442;-67
2022/07/09 07:04:49;;;;;;;6.45;3.77;;;;;;;19.24;74.38;100664.80;1650543;86;27249;-67
2022/07/09 07:07:15;;;;;;;10.78;3.60;;;;;;;19.27;73.99;100661.89;1667702;85;25601;-67
2022/07/09 07:09:41;;;;;;;6.45;3.17;;;;;;;19.31;74.03;100660.04;1650569;86;25404;-66
2022/07/09 07:12:09;;;;;;;5.45;3.10;;;;;;;19.36;74.16;100665.23;1667879;85;25644;-66
2022/07/09 07:14:35;;;;;;;7.08;3.10;;;;;;;19.39;73.01;100659.83;1650541;86;25621;-66
2022/07/09 07:17:01;;;;;;;5.42;3.08;;;;;;;19.39;73.34;100657.09;1667806;86;27336;-66
2022/07/09 07:19:27;;;;;;;8.03;2.80;;;;;;;19.43;73.09;100644.81;1650542;86;25649;-66
2022/07/09 07:21:54;;;;;;;5.10;2.80;;;;;;;19.54;72.71;100643.06;1667855;86;25574;-67
2022/07/09 07:24:20;;;;;;;4.55;2.60;;;;;;;19.61;72.23;100647.89;1650727;86;25621;-67
2022/07/09 07:26:47;;;;;;;4.70;2.90;;;;;;;19.68;72.06;100649.98;1668003;85;25665;-66
2022/07/09 07:29:14;;;;;;;4.47;2.70;;;;;;;19.70;71.00;100645.74;1650788;87;28313;-66
2022/07/09 07:31:40;;;;;;;6.40;2.87;;;;;;;19.69;70.96;100643.36;1668130;85;25412;-66
2022/07/09 07:34:06;;;;;;;14.00;8.10;;;;;;;19.72;71.04;100639.89;1650789;86;25455;-66
2022/07/09 07:36:32;;;;;;;6.97;3.47;;;;;;;19.79;71.01;100640.05;1668080;85;25638;-66
2022/07/09 07:38:58;;;;;;;5.83;2.58;;;;;;;19.88;71.24;100637.08;1650848;86;25612;-66
2022/07/09 07:41:24;;;;;;;6.35;3.20;;;;;;;19.94;71.02;100643.28;1675193;83;27423;-66
2022/07/09 07:43:50;;;;;;;4.58;2.80;;;;;;;19.96;70.36;100640.17;1647940;86;25639;-66
2022/07/09 07:46:16;;;;;;;5.30;2.85;;;;;;;19.89;69.92;100647.70;1667649;86;25603;-66
2022/07/09 07:48:43;;;;;;;4.03;3.27;;;;;;;19.83;69.36;100647.77;1675431;83;26345;-66
2022/07/09 07:51:10;;;;;;;4.95;4.10;;;;;;;19.77;69.22;100640.41;1667531;86;25477;-66
2022/07/09 07:53:37;;;;;;;7.58;3.67;;;;;;;19.72;68.54;100633.03;1675237;85;27380;-66
2022/07/09 07:56:05;;;;;;;4.05;3.45;;;;;;;19.70;68.64;100636.70;1667425;86;25613;-66
2022/07/09 07:58:33;;;;;;;4.77;4.10;;;;;;;19.73;69.21;100638.16;1675519;85;25459;-66
2022/07/09 08:00:59;;;;;;;3.30;3.10;;;;;;;19.97;69.21;100637.63;1667436;86;25672;-66
2022/07/09 08:03:26;;;;;;;7.47;3.30;;;;;;;20.28;68.63;100641.33;1675292;85;25497;-66
2022/07/09 08:05:53;;;;;;;3.77;2.85;;;;;;;20.48;68.03;100640.09;1667502;86;27397;-66
2022/07/09 08:08:19;;;;;;;3.58;3.20;;;;;;;20.64;67.49;100644.09;1675281;85;25478;-66
2022/07/09 08:10:48;;;;;;;3.92;2.92;;;;;;;20.89;67.54;100633.47;1647954;86;25481;-66
2022/07/09 08:13:15;;;;;;;3.42;2.95;;;;;;;21.06;67.20;100630.77;1667621;86;25989;-66
2022/07/09 08:15:42;;;;;;;3.50;2.75;;;;;;;21.18;66.85;100633.05;1675271;85;25523;-66
2022/07/09 08:18:12;;;;;;;3.95;3.17;;;;;;;21.29;64.85;100635.38;1667433;86;27368;-66
2022/07/09 08:20:37;;;;;;;2.70;2.40;;;;;;;21.19;65.17;100636.02;1675054;83;25566;-67
2022/07/09 08:23:03;;;;;;;2.20;2.00;;;;;;;21.20;64.77;100633.50;1667523;86;25719;-67
2022/07/09 08:25:29;;;;;;;2.65;2.45;;;;;;;21.15;64.05;100633.82;1648019;85;25901;-67
2022/07/09 08:27:55;;;;;;;2.52;2.33;;;;;;;21.19;64.54;100624.44;1648135;85;25446;-67
2022/07/09 08:30:21;;;;;;;2.20;2.10;;;;;;;21.34;64.38;100631.50;1667400;86;27353;-67
2022/07/09 08:32:48;;;;;;;2.80;2.22;;;;;;;21.47;64.29;100628.75;1675150;85;25460;-67
2022/07/09 08:35:14;;;;;;;2.40;2.15;;;;;;;21.81;63.65;100624.58;1667524;86;25481;-66
2022/07/09 08:37:40;;;;;;;2.45;2.25;;;;;;;22.17;64.00;100617.47;1675201;85;25688;-68
2022/07/09 08:40:08;;;;;;;3.72;1.95;;;;;;;22.72;64.24;100615.34;1662800;86;25455;-67
2022/07/09 08:42:35;;;;;;;2.37;2.00;;;;;;;22.98;62.55;100623.77;1667660;86;27398;-67
2022/07/09 08:45:02;;;;;;;4.47;2.12;;;;;;;23.10;60.49;100614.62;1650360;86;25663;-67
2022/07/09 08:47:29;;;;;;;2.17;1.80;;;;;;;23.07;60.09;100614.57;1667686;86;25590;-67
2022/07/09 08:49:59;;;;;;;2.12;1.52;;;;;;;23.28;61.31;100607.00;1650386;86;25624;-67
2022/07/09 08:52:27;;;;;;;10.13;8.28;;;;;;;23.66;59.51;100601.98;1667755;85;25458;-67
2022/07/09 08:54:55;;;;;;;3.60;1.92;;;;;;;23.89;59.78;100603.05;1650454;86;27266;-67
2022/07/09 08:57:21;;;;;;;2.02;1.37;;;;;;;24.11;57.12;100598.33;1667600;86;25420;-67
2022/07/09 08:59:47;;;;;;;3.42;1.30;;;;;;;24.30;58.17;100587.47;1650449;87;25651;-67
2022/07/09 09:02:13;;;;;;;4.03;1.30;;;;;;;24.65;57.46;100594.75;1667666;86;25628;-67
2022/07/09 09:04:41;;;;;;;3.33;1.30;;;;;;;24.79;56.29;100587.80;1650465;86;25568;-67
2022/07/09 09:07:23;;;;;;;1.30;1.20;;;;;;;24.69;55.02;100596.91;1667723;85;28132;-67
2022/07/09 09:09:49;;;;;;;4.25;1.32;;;;;;;24.32;54.38;100587.86;1650447;86;25676;-67
2022/07/09 09:12:21;;;;;;;2.45;1.25;;;;;;;24.32;55.59;100588.45;1667595;86;25681;-66
2022/07/09 09:14:50;;;;;;;1.82;1.20;;;;;;;24.65;54.99;100590.61;1666251;86;25610;-66
2022/07/09 09:17:17;;;;;;;2.17;1.45;;;;;;;24.70;53.67;100592.36;1650543;86;25440;-67
2022/07/09 09:19:43;;;;;;;3.45;0.98;;;;;;;24.75;53.04;100584.26;1667652;85;28248;-67
2022/07/09 09:22:09;;;;;;;3.72;0.95;;;;;;;24.71;50.77;100585.66;1650361;86;25432;-66
2022/07/09 09:24:35;;;;;;;2.75;1.40;;;;;;;24.68;51.13;100579.53;1667725;85;25591;-66
2022/07/09 09:27:03;;;;;;;4.28;1.37;;;;;;;24.82;51.37;100576.54;1650511;86;25632;-66
2022/07/09 09:29:30;;;;;;;2.65;1.60;;;;;;;24.75;51.00;100570.43;1667718;85;25667;-66
2022/07/09 09:31:56;;;;;;;4.28;1.30;;;;;;;24.76;51.55;100572.80;1650524;87;28221;-66
2022/07/09 09:34:24;;;;;;;2.27;1.22;;;;;;;24.89;51.82;100571.78;1667616;85;25645;-67
2022/07/09 09:36:54;;;;;;;3.30;1.27;;;;;;;25.20;51.63;100560.98;1650447;86;25478;-67
2022/07/09 09:39:28;;;;;;;5.22;1.20;;;;;;;25.67;51.41;100565.66;1667750;86;26431;-66
2022/07/09 09:41:59;;;;;;;2.22;0.82;;;;;;;26.11;50.73;100565.39;1650437;86;25640;-66
2022/07/09 09:44:37;;;;;;;3.77;0.80;;;;;;;26.22;47.69;100557.75;1667677;86;27563;-67
2022/07/09 09:46:59;;;;;;;3.40;1.32;;;;;;;26.34;47.88;100555.06;1649860;86;25794;-67
2022/07/09 09:49:26;;;;;;;3.90;1.32;;;;;;;26.32;47.15;100541.61;1667896;86;25587;-67
2022/07/09 09:52:12;;;;;;;3.92;1.25;;;;;;;26.40;46.04;100543.12;1650601;86;25736;-67
2022/07/09 09:54:39;;;;;;;2.17;1.12;;;;;;;26.54;46.69;100527.53;1667486;86;25424;-66
2022/07/09 09:57:14;;;;;;;5.20;0.80;;;;;;;26.99;47.79;100535.76;1650183;86;27622;-66
2022/07/09 09:59:40;;;;;;;3.30;1.60;;;;;;;27.45;47.30;100526.03;1667444;86;25414;-67
2022/07/09 10:02:09;;;;;;;2.33;1.15;;;;;;;27.66;42.24;100525.52;1650695;86;25443;-66
2022/07/09 10:04:38;;;;;;;2.67;1.80;;;;;;;27.26;43.76;100514.17;1667736;85;25700;-66
2022/07/09 10:07:07;;;;;;;2.22;1.20;;;;;;;27.29;43.36;100521.09;1650649;86;25626;-66
2022/07/09 10:09:33;;;;;;;1.37;0.80;;;;;;;27.02;42.54;100521.84;1668026;86;28038;-68
2022/07/09 10:11:59;;;;;;;2.45;1.20;;;;;;;26.66;42.54;100520.09;1650461;86;25432;-66
2022/07/09 10:14:30;;;;;;;1.98;1.40;;;;;;;26.35;43.06;100515.84;1667815;86;25511;-66
2022/07/09 10:16:58;;;;;;;1.72;1.00;;;;;;;26.14;43.70;100509.14;1650537;86;25613;-67
2022/07/09 10:19:33;;;;;;;4.75;2.67;;;;;;;25.75;43.15;100522.09;1667880;86;25633;-67
2022/07/09 10:22:00;;;;;;;5.58;1.50;;;;;;;25.31;43.00;100520.20;1650545;86;27151;-66
2022/07/09 10:24:32;;;;;;;3.42;1.20;;;;;;;24.99;44.11;100513.43;1667683;86;25620;-66
2022/07/09 10:27:10;;;;;;;2.35;1.30;;;;;;;25.10;44.66;100507.26;1650549;86;25652;-66
2022/07/09 10:29:49;;;;;;;3.00;1.55;;;;;;;25.45;45.49;100507.47;1667666;85;25641;-66
2022/07/09 10:32:30;;;;;;;1.20;1.10;;;;;;;26.03;44.01;100510.03;1640378;87;25624;-66
2022/07/09 10:35:04;;;;;;;6.87;1.60;;;;;;;25.76;42.64;100507.06;1650572;86;29430;-65
2022/07/09 10:37:42;;;;;;;3.80;1.57;;;;;;;25.57;44.26;100500.06;1667470;86;25467;-66
2022/07/09 10:40:19;;;;;;;3.07;1.17;;;;;;;25.57;44.27;100497.29;1650765;86;25541;-65
2022/07/09 10:42:58;;;;;;;2.40;1.12;;;;;;;25.44;43.65;100492.07;1667742;86;25780;-65
2022/07/09 10:45:28;;;;;;;2.87;1.20;;;;;;;25.44;42.70;100501.77;1647616;86;25439;-65
2022/07/09 10:47:59;;;;;;;5.62;1.42;;;;;;;25.67;42.33;100506.72;1667864;86;27394;-64
2022/07/09 10:50:29;;;;;;;5.67;2.00;;;;;;;25.80;42.34;100489.02;1650428;86;25677;-63
2022/07/09 10:52:56;;;;;;;2.58;1.05;;;;;;;26.18;42.83;100487.70;1667781;86;25420;-70
2022/07/09 10:55:27;;;;;;;4.45;1.55;;;;;;;26.46;41.90;100483.85;1650481;86;25699;-70
2022/07/09 10:57:54;;;;;;;3.52;1.17;;;;;;;26.48;41.44;100484.22;1667819;85;25238;-68
2022/07/09 11:00:24;;;;;;;4.65;1.45;;;;;;;26.76;42.14;100476.16;1650512;86;27325;-68
2022/07/09 11:03:02;;;;;;;6.50;1.80;;;;;;;27.02;41.10;100482.17;1667260;86;25559;-68
2022/07/09 11:05:34;;;;;;;4.83;1.42;;;;;;;26.79;41.08;100473.17;1650751;87;25639;-69
2022/07/09 11:08:04;;;;;;;2.67;1.47;;;;;;;26.51;40.85;100480.63;1667753;85;26294;-69
2022/07/09 11:10:35;;;;;;;3.05;1.70;;;;;;;26.54;42.24;100483.93;1650510;87;25464;-69
2022/07/09 11:13:02;;;;;;;3.87;1.50;;;;;;;26.95;41.74;100473.37;1667773;86;27348;-69
2022/07/09 11:15:34;;;;;;;4.10;1.37;;;;;;;27.42;42.51;100474.09;1650401;86;25658;-69
2022/07/09 11:18:11;;;;;;;8.13;1.47;;;;;;;27.76;41.92;100468.98;1667763;86;25426;-69
2022/07/09 11:20:43;;;;;;;6.12;1.70;;;;;;;28.14;40.37;100467.34;1650385;86;26501;-68
2022/07/09 11:23:12;;;;;;;2.33;1.52;;;;;;;28.35;39.83;100472.31;1667590;86;25563;-69